sensor_id;sensor_type;location;lat;lon;timestamp;temperature;humidity
15698;DHT22;7949;48.726;9.102;2022-10-16T00:01:05;15.00;99.90
15698;DHT22;7949;48.726;9.102;2022-10-16T00:03:33;15.00;99.90
15698;DHT22;7949;48.726;9.102;2022-10-16T00:06:00;15.00;99.90
15698;DHT22;7949;48.726;9.102;2022-10-16T00:08:28;15.00;99.90
15698;DHT22;7949;48.726;9.102;2022-10-16T00:10:59;14.90;99.90
15698;DHT22;7949;48.726;9.102;2022-10-16T00:13:28;14.90;99.90
15698;DHT22;7949;48.726;9.102;2022-10-16T00:15:55;14.90;99.90
15698;DHT22;7949;48.726;9.102;2022-10-16T00:18:22;14.80;99.90
15698;DHT22;7949;48.726;9.102;2022-10-16T00:20:49;14.80;99.90
15698;DHT22;7949;48.726;9.102;2022-10-16T00:23:16;14.70;99.90
15698;DHT22;7949;48.726;9.102;2022-10-16T00:25:43;14.70;99.90
15698;DHT22;7949;48.726;9.102;2022-10-16T00:28:09;14.70;99.90
15698;DHT22;7949;48.726;9.102;2022-10-16T00:30:39;14.70;99.90
15698;DHT22;7949;48.726;9.102;2022-10-16T00:33:06;14.70;99.90
15698;DHT22;7949;48.726;9.102;2022-10-16T00:35:33;14.70;99.90
15698;DHT22;7949;48.726;9.102;2022-10-16T00:38:00;14.60;99.90
15698;DHT22;7949;48.726;9.102;2022-10-16T00:40:26;14.70;99.90
15698;DHT22;7949;48.726;9.102;2022-10-16T00:42:55;14.70;99.90
15698;DHT22;7949;48.726;9.102;2022-10-16T00:45:21;14.70;99.90
15698;DHT22;7949;48.726;9.102;2022-10-16T00:47:52;14.70;99.90
15698;DHT22;7949;48.726;9.102;2022-10-16T00:50:24;14.80;99.90
15698;DHT22;7949;48.726;9.102;2022-10-16T00:52:53;14.70;99.90
15698;DHT22;7949;48.726;9.102;2022-10-16T00:55:21;14.70;99.90
15698;DHT22;7949;48.726;9.102;2022-10-16T00:57:48;14.70;99.90
15698;DHT22;7949;48.726;9.102;2022-10-16T01:00:19;14.60;99.90
15698;DHT22;7949;48.726;9.102;2022-10-16T01:02:53;14.50;99.90
15698;DHT22;7949;48.726;9.102;2022-10-16T01:05:21;14.50;99.90
15698;DHT22;7949;48.726;9.102;2022-10-16T01:07:53;14.50;99.90
15698;DHT22;7949;48.726;9.102;2022-10-16T01:10:27;14.50;99.90
15698;DHT22;7949;48.726;9.102;2022-10-16T01:13:01;14.60;99.90
15698;DHT22;7949;48.726;9.102;2022-10-16T01:15:32;14.60;99.90
15698;DHT22;7949;48.726;9.102;2022-10-16T01:18:07;14.50;99.90
15698;DHT22;7949;48.726;9.102;2022-10-16T01:20:37;14.40;99.90
15698;DHT22;7949;48.726;9.102;2022-10-16T01:23:19;14.30;99.90
15698;DHT22;7949;48.726;9.102;2022-10-16T01:26:04;14.20;99.90
15698;DHT22;7949;48.726;9.102;2022-10-16T01:28:41;14.30;99.90
15698;DHT22;7949;48.726;9.102;2022-10-16T01:31:11;14.20;99.90
15698;DHT22;7949;48.726;9.102;2022-10-16T01:33:43;14.10;99.90
15698;DHT22;7949;48.726;9.102;2022-10-16T01:36:14;14.00;99.90
15698;DHT22;7949;48.726;9.102;2022-10-16T01:38:44;14.00;99.90
15698;DHT22;7949;48.726;9.102;2022-10-16T01:41:17;14.00;99.90
15698;DHT22;7949;48.726;9.102;2022-10-16T01:43:48;14.00;99.90
15698;DHT22;7949;48.726;9.102;2022-10-16T01:46:18;13.90;99.90
15698;DHT22;7949;48.726;9.102;2022-10-16T01:48:47;14.10;99.90
15698;DHT22;7949;48.726;9.102;2022-10-16T01:51:15;14.10;99.90
15698;DHT22;7949;48.726;9.102;2022-10-16T01:53:47;14.10;99.90
15698;DHT22;7949;48.726;9.102;2022-10-16T01:56:15;14.20;99.90
15698;DHT22;7949;48.726;9.102;2022-10-16T01:58:47;14.20;99.90
15698;DHT22;7949;48.726;9.102;2022-10-16T02:01:17;14.40;99.90
15698;DHT22;7949;48.726;9.102;2022-10-16T02:03:48;14.40;99.90
15698;DHT22;7949;48.726;9.102;2022-10-16T02:06:16;14.50;99.90
15698;DHT22;7949;48.726;9.102;2022-10-16T02:08:43;14.60;99.90
15698;DHT22;7949;48.726;9.102;2022-10-16T02:11:10;14.60;99.90
15698;DHT22;7949;48.726;9.102;2022-10-16T02:13:39;14.70;99.90
15698;DHT22;7949;48.726;9.102;2022-10-16T02:16:09;14.70;99.90
15698;DHT22;7949;48.726;9.102;2022-10-16T02:18:36;14.70;99.90
15698;DHT22;7949;48.726;9.102;2022-10-16T02:21:07;14.70;99.90
15698;DHT22;7949;48.726;9.102;2022-10-16T02:23:45;14.70;99.90
15698;DHT22;7949;48.726;9.102;2022-10-16T02:26:16;14.80;99.90
15698;DHT22;7949;48.726;9.102;2022-10-16T02:28:50;14.80;99.90
15698;DHT22;7949;48.726;9.102;2022-10-16T02:31:24;14.80;99.90
15698;DHT22;7949;48.726;9.102;2022-10-16T02:33:54;14.90;99.90
15698;DHT22;7949;48.726;9.102;2022-10-16T02:36:21;14.90;99.90
15698;DHT22;7949;48.726;9.102;2022-10-16T02:38:49;14.90;99.90
15698;DHT22;7949;48.726;9.102;2022-10-16T02:41:16;14.90;99.90
15698;DHT22;7949;48.726;9.102;2022-10-16T02:43:43;14.90;99.90
15698;DHT22;7949;48.726;9.102;2022-10-16T02:46:10;14.90;99.90
15698;DHT22;7949;48.726;9.102;2022-10-16T02:48:38;14.80;99.90
15698;DHT22;7949;48.726;9.102;2022-10-16T02:51:05;14.80;99.90
15698;DHT22;7949;48.726;9.102;2022-10-16T02:53:32;14.80;99.90
15698;DHT22;7949;48.726;9.102;2022-10-16T02:55:59;14.70;99.90
15698;DHT22;7949;48.726;9.102;2022-10-16T02:58:26;14.70;99.90
15698;DHT22;7949;48.726;9.102;2022-10-16T03:00:53;14.70;99.90
15698;DHT22;7949;48.726;9.102;2022-10-16T03:03:21;14.70;99.90
15698;DHT22;7949;48.726;9.102;2022-10-16T03:05:49;14.70;99.90
15698;DHT22;7949;48.726;9.102;2022-10-16T03:08:16;14.70;99.90
15698;DHT22;7949;48.726;9.102;2022-10-16T03:10:42;14.60;99.90
15698;DHT22;7949;48.726;9.102;2022-10-16T03:13:09;14.60;99.90
15698;DHT22;7949;48.726;9.102;2022-10-16T03:15:36;14.60;99.90
15698;DHT22;7949;48.726;9.102;2022-10-16T03:18:03;14.60;99.90
15698;DHT22;7949;48.726;9.102;2022-10-16T03:20:30;14.60;99.90
15698;DHT22;7949;48.726;9.102;2022-10-16T03:22:58;14.60;99.90
15698;DHT22;7949;48.726;9.102;2022-10-16T03:25:25;14.60;99.90
15698;DHT22;7949;48.726;9.102;2022-10-16T03:27:52;14.60;99.90
15698;DHT22;7949;48.726;9.102;2022-10-16T03:30:19;14.60;99.90
15698;DHT22;7949;48.726;9.102;2022-10-16T03:32:46;14.60;99.90
15698;DHT22;7949;48.726;9.102;2022-10-16T03:35:13;14.60;99.90
15698;DHT22;7949;48.726;9.102;2022-10-16T03:37:40;14.60;99.90
15698;DHT22;7949;48.726;9.102;2022-10-16T03:40:09;14.60;99.90
15698;DHT22;7949;48.726;9.102;2022-10-16T03:42:36;14.50;99.90
15698;DHT22;7949;48.726;9.102;2022-10-16T03:45:03;14.50;99.90
15698;DHT22;7949;48.726;9.102;2022-10-16T03:47:30;14.50;99.90
15698;DHT22;7949;48.726;9.102;2022-10-16T03:49:58;14.50;99.90
15698;DHT22;7949;48.726;9.102;2022-10-16T03:52:26;14.40;99.90
15698;DHT22;7949;48.726;9.102;2022-10-16T03:54:53;14.40;99.90
15698;DHT22;7949;48.726;9.102;2022-10-16T03:57:21;14.30;99.90
15698;DHT22;7949;48.726;9.102;2022-10-16T03:59:48;14.30;99.90
15698;DHT22;7949;48.726;9.102;2022-10-16T04:02:15;14.40;99.90
15698;DHT22;7949;48.726;9.102;2022-10-16T04:04:42;14.20;99.90
15698;DHT22;7949;48.726;9.102;2022-10-16T04:07:08;14.30;99.90
15698;DHT22;7949;48.726;9.102;2022-10-16T04:09:35;14.30;99.90
15698;DHT22;7949;48.726;9.102;2022-10-16T04:12:02;14.30;99.90
15698;DHT22;7949;48.726;9.102;2022-10-16T04:14:30;14.30;99.90
15698;DHT22;7949;48.726;9.102;2022-10-16T04:16:57;14.30;99.90
15698;DHT22;7949;48.726;9.102;2022-10-16T04:19:24;14.40;99.90
15698;DHT22;7949;48.726;9.102;2022-10-16T04:21:51;14.50;99.90
15698;DHT22;7949;48.726;9.102;2022-10-16T04:24:18;14.40;99.90
15698;DHT22;7949;48.726;9.102;2022-10-16T04:26:45;14.50;99.90
15698;DHT22;7949;48.726;9.102;2022-10-16T04:29:11;14.60;99.90
15698;DHT22;7949;48.726;9.102;2022-10-16T04:31:39;14.60;99.90
15698;DHT22;7949;48.726;9.102;2022-10-16T04:34:06;14.70;99.90
15698;DHT22;7949;48.726;9.102;2022-10-16T04:36:33;14.80;99.90
15698;DHT22;7949;48.726;9.102;2022-10-16T04:39:00;14.90;99.90
15698;DHT22;7949;48.726;9.102;2022-10-16T04:41:27;15.00;99.90
15698;DHT22;7949;48.726;9.102;2022-10-16T04:43:53;15.10;99.90
15698;DHT22;7949;48.726;9.102;2022-10-16T04:46:20;15.00;99.90
15698;DHT22;7949;48.726;9.102;2022-10-16T04:48:48;15.00;99.90
15698;DHT22;7949;48.726;9.102;2022-10-16T04:51:15;15.00;99.90
15698;DHT22;7949;48.726;9.102;2022-10-16T04:53:42;15.00;99.90
15698;DHT22;7949;48.726;9.102;2022-10-16T04:56:08;15.00;99.90
15698;DHT22;7949;48.726;9.102;2022-10-16T04:58:35;15.00;99.90
15698;DHT22;7949;48.726;9.102;2022-10-16T05:01:02;15.00;99.90
15698;DHT22;7949;48.726;9.102;2022-10-16T05:03:29;15.00;99.90
15698;DHT22;7949;48.726;9.102;2022-10-16T05:05:57;15.00;99.90
15698;DHT22;7949;48.726;9.102;2022-10-16T05:08:24;15.00;99.90
15698;DHT22;7949;48.726;9.102;2022-10-16T05:10:51;15.10;99.90
15698;DHT22;7949;48.726;9.102;2022-10-16T05:13:17;15.10;99.90
15698;DHT22;7949;48.726;9.102;2022-10-16T05:15:46;15.10;99.90
15698;DHT22;7949;48.726;9.102;2022-10-16T05:18:13;15.20;99.90
15698;DHT22;7949;48.726;9.102;2022-10-16T05:20:41;15.20;99.90
15698;DHT22;7949;48.726;9.102;2022-10-16T05:23:09;15.10;99.90
15698;DHT22;7949;48.726;9.102;2022-10-16T05:25:37;15.10;99.90
15698;DHT22;7949;48.726;9.102;2022-10-16T05:28:04;15.10;99.90
15698;DHT22;7949;48.726;9.102;2022-10-16T05:30:31;15.10;99.90
15698;DHT22;7949;48.726;9.102;2022-10-16T05:32:58;15.00;99.90
15698;DHT22;7949;48.726;9.102;2022-10-16T05:35:25;15.00;99.90
15698;DHT22;7949;48.726;9.102;2022-10-16T05:37:52;15.00;99.90
15698;DHT22;7949;48.726;9.102;2022-10-16T05:40:21;14.90;99.90
15698;DHT22;7949;48.726;9.102;2022-10-16T05:42:47;14.90;99.90
15698;DHT22;7949;48.726;9.102;2022-10-16T05:45:14;14.90;99.90
15698;DHT22;7949;48.726;9.102;2022-10-16T05:47:41;14.90;99.90
15698;DHT22;7949;48.726;9.102;2022-10-16T05:50:08;14.90;99.90
15698;DHT22;7949;48.726;9.102;2022-10-16T05:52:35;14.80;99.90
15698;DHT22;7949;48.726;9.102;2022-10-16T05:55:02;14.80;99.90
15698;DHT22;7949;48.726;9.102;2022-10-16T05:57:31;14.80;99.90
15698;DHT22;7949;48.726;9.102;2022-10-16T05:59:58;14.80;99.90
15698;DHT22;7949;48.726;9.102;2022-10-16T06:02:24;14.80;99.90
15698;DHT22;7949;48.726;9.102;2022-10-16T06:04:51;14.80;99.90
15698;DHT22;7949;48.726;9.102;2022-10-16T06:07:19;14.80;99.90
15698;DHT22;7949;48.726;9.102;2022-10-16T06:09:48;14.70;99.90
15698;DHT22;7949;48.726;9.102;2022-10-16T06:12:15;14.80;99.90
15698;DHT22;7949;48.726;9.102;2022-10-16T06:14:44;14.90;99.90
15698;DHT22;7949;48.726;9.102;2022-10-16T06:17:12;14.90;99.90
15698;DHT22;7949;48.726;9.102;2022-10-16T06:19:39;14.90;99.90
15698;DHT22;7949;48.726;9.102;2022-10-16T06:22:06;15.00;99.90
15698;DHT22;7949;48.726;9.102;2022-10-16T06:24:33;15.00;99.90
15698;DHT22;7949;48.726;9.102;2022-10-16T06:27:00;15.10;99.90
15698;DHT22;7949;48.726;9.102;2022-10-16T06:29:27;15.20;99.90
15698;DHT22;7949;48.726;9.102;2022-10-16T06:31:55;15.30;99.90
15698;DHT22;7949;48.726;9.102;2022-10-16T06:34:22;15.40;99.90
15698;DHT22;7949;48.726;9.102;2022-10-16T06:36:48;15.40;99.90
15698;DHT22;7949;48.726;9.102;2022-10-16T06:39:15;15.50;99.90
15698;DHT22;7949;48.726;9.102;2022-10-16T06:41:42;15.90;99.90
15698;DHT22;7949;48.726;9.102;2022-10-16T06:44:09;15.60;99.90
15698;DHT22;7949;48.726;9.102;2022-10-16T06:46:36;15.60;99.90
15698;DHT22;7949;48.726;9.102;2022-10-16T06:49:04;15.80;99.90
15698;DHT22;7949;48.726;9.102;2022-10-16T06:51:31;15.80;99.90
15698;DHT22;7949;48.726;9.102;2022-10-16T06:54:00;15.90;99.90
15698;DHT22;7949;48.726;9.102;2022-10-16T06:56:27;16.00;99.90
15698;DHT22;7949;48.726;9.102;2022-10-16T06:58:55;16.00;99.90
15698;DHT22;7949;48.726;9.102;2022-10-16T07:01:23;16.00;99.90
15698;DHT22;7949;48.726;9.102;2022-10-16T07:03:50;16.50;99.90
15698;DHT22;7949;48.726;9.102;2022-10-16T07:06:23;16.10;99.90
15698;DHT22;7949;48.726;9.102;2022-10-16T07:08:50;16.10;99.90
15698;DHT22;7949;48.726;9.102;2022-10-16T07:11:19;16.10;99.90
15698;DHT22;7949;48.726;9.102;2022-10-16T07:13:47;16.20;99.90
15698;DHT22;7949;48.726;9.102;2022-10-16T07:16:16;16.10;99.90
15698;DHT22;7949;48.726;9.102;2022-10-16T07:18:43;16.20;99.90
15698;DHT22;7949;48.726;9.102;2022-10-16T07:21:13;16.20;99.90
15698;DHT22;7949;48.726;9.102;2022-10-16T07:23:42;16.30;99.90
15698;DHT22;7949;48.726;9.102;2022-10-16T07:26:09;16.20;99.90
15698;DHT22;7949;48.726;9.102;2022-10-16T07:28:36;16.30;99.90
15698;DHT22;7949;48.726;9.102;2022-10-16T07:31:05;16.30;99.90
15698;DHT22;7949;48.726;9.102;2022-10-16T07:33:32;16.30;99.90
15698;DHT22;7949;48.726;9.102;2022-10-16T07:36:00;16.40;99.90
15698;DHT22;7949;48.726;9.102;2022-10-16T07:38:27;16.40;99.90
15698;DHT22;7949;48.726;9.102;2022-10-16T07:40:59;16.40;99.90
15698;DHT22;7949;48.726;9.102;2022-10-16T07:43:27;16.50;99.90
15698;DHT22;7949;48.726;9.102;2022-10-16T07:45:54;16.50;99.90
15698;DHT22;7949;48.726;9.102;2022-10-16T07:48:22;16.50;99.90
15698;DHT22;7949;48.726;9.102;2022-10-16T07:50:50;17.30;99.90
15698;DHT22;7949;48.726;9.102;2022-10-16T07:53:16;16.60;99.90
15698;DHT22;7949;48.726;9.102;2022-10-16T07:55:43;16.50;99.90
15698;DHT22;7949;48.726;9.102;2022-10-16T07:58:11;16.50;99.90
15698;DHT22;7949;48.726;9.102;2022-10-16T08:00:38;16.50;99.90
15698;DHT22;7949;48.726;9.102;2022-10-16T08:03:05;16.60;99.90
15698;DHT22;7949;48.726;9.102;2022-10-16T08:05:32;16.60;99.90
15698;DHT22;7949;48.726;9.102;2022-10-16T08:08:00;16.70;99.90
15698;DHT22;7949;48.726;9.102;2022-10-16T08:10:28;16.80;99.90
15698;DHT22;7949;48.726;9.102;2022-10-16T08:12:57;16.90;99.90
15698;DHT22;7949;48.726;9.102;2022-10-16T08:15:25;16.90;99.90
15698;DHT22;7949;48.726;9.102;2022-10-16T08:17:57;17.10;99.90
15698;DHT22;7949;48.726;9.102;2022-10-16T08:20:24;17.20;99.90
15698;DHT22;7949;48.726;9.102;2022-10-16T08:22:51;17.30;99.90
15698;DHT22;7949;48.726;9.102;2022-10-16T08:25:19;17.40;99.90
15698;DHT22;7949;48.726;9.102;2022-10-16T08:27:46;17.50;99.90
15698;DHT22;7949;48.726;9.102;2022-10-16T08:30:14;17.50;99.90
15698;DHT22;7949;48.726;9.102;2022-10-16T08:32:42;17.50;99.90
15698;DHT22;7949;48.726;9.102;2022-10-16T08:35:09;17.60;99.90
15698;DHT22;7949;48.726;9.102;2022-10-16T08:37:36;17.60;99.90
15698;DHT22;7949;48.726;9.102;2022-10-16T08:40:05;17.70;99.90
15698;DHT22;7949;48.726;9.102;2022-10-16T08:42:46;17.70;99.90
15698;DHT22;7949;48.726;9.102;2022-10-16T08:45:34;17.70;99.90
15698;DHT22;7949;48.726;9.102;2022-10-16T08:48:14;17.70;99.90
15698;DHT22;7949;48.726;9.102;2022-10-16T08:50:43;17.90;99.90
15698;DHT22;7949;48.726;9.102;2022-10-16T08:53:15;17.70;99.90
15698;DHT22;7949;48.726;9.102;2022-10-16T08:55:46;17.60;99.90
15698;DHT22;7949;48.726;9.102;2022-10-16T08:58:17;17.60;99.90
15698;DHT22;7949;48.726;9.102;2022-10-16T09:00:47;17.80;99.90
15698;DHT22;7949;48.726;9.102;2022-10-16T09:03:31;18.00;99.90
15698;DHT22;7949;48.726;9.102;2022-10-16T09:06:24;18.10;99.90
15698;DHT22;7949;48.726;9.102;2022-10-16T09:09:06;18.40;99.90
15698;DHT22;7949;48.726;9.102;2022-10-16T09:11:44;18.60;99.90
15698;DHT22;7949;48.726;9.102;2022-10-16T09:14:37;18.70;99.90
15698;DHT22;7949;48.726;9.102;2022-10-16T09:17:18;18.80;99.90
15698;DHT22;7949;48.726;9.102;2022-10-16T09:19:52;18.90;99.90
15698;DHT22;7949;48.726;9.102;2022-10-16T09:22:25;18.80;99.90
15698;DHT22;7949;48.726;9.102;2022-10-16T09:24:54;18.90;99.90
15698;DHT22;7949;48.726;9.102;2022-10-16T09:27:21;19.10;99.90
15698;DHT22;7949;48.726;9.102;2022-10-16T09:29:48;19.00;99.90
15698;DHT22;7949;48.726;9.102;2022-10-16T09:32:17;18.90;99.90
15698;DHT22;7949;48.726;9.102;2022-10-16T09:34:49;19.00;99.90
15698;DHT22;7949;48.726;9.102;2022-10-16T09:37:20;19.10;99.90
15698;DHT22;7949;48.726;9.102;2022-10-16T09:39:49;19.20;99.90
15698;DHT22;7949;48.726;9.102;2022-10-16T09:42:17;19.20;99.90
15698;DHT22;7949;48.726;9.102;2022-10-16T09:44:47;19.20;99.90
15698;DHT22;7949;48.726;9.102;2022-10-16T09:47:17;19.30;99.90
15698;DHT22;7949;48.726;9.102;2022-10-16T09:49:53;19.50;99.90
15698;DHT22;7949;48.726;9.102;2022-10-16T09:52:22;19.70;99.90
15698;DHT22;7949;48.726;9.102;2022-10-16T09:54:50;20.00;99.90
15698;DHT22;7949;48.726;9.102;2022-10-16T09:57:17;20.20;99.90
15698;DHT22;7949;48.726;9.102;2022-10-16T09:59:48;20.30;99.90
15698;DHT22;7949;48.726;9.102;2022-10-16T10:02:16;20.30;99.90
15698;DHT22;7949;48.726;9.102;2022-10-16T10:04:49;20.50;99.90
15698;DHT22;7949;48.726;9.102;2022-10-16T10:07:23;20.60;99.90
15698;DHT22;7949;48.726;9.102;2022-10-16T10:09:50;20.80;99.90
15698;DHT22;7949;48.726;9.102;2022-10-16T10:12:20;21.00;99.90
15698;DHT22;7949;48.726;9.102;2022-10-16T10:14:48;21.10;99.90
15698;DHT22;7949;48.726;9.102;2022-10-16T10:17:17;21.30;99.90
15698;DHT22;7949;48.726;9.102;2022-10-16T10:19:47;21.40;99.90
15698;DHT22;7949;48.726;9.102;2022-10-16T10:22:23;21.50;99.90
15698;DHT22;7949;48.726;9.102;2022-10-16T10:25:01;21.60;99.90
15698;DHT22;7949;48.726;9.102;2022-10-16T10:27:42;21.60;99.90
15698;DHT22;7949;48.726;9.102;2022-10-16T10:30:15;21.70;99.90
15698;DHT22;7949;48.726;9.102;2022-10-16T10:32:53;21.80;99.90
15698;DHT22;7949;48.726;9.102;2022-10-16T10:35:25;21.90;99.90
15698;DHT22;7949;48.726;9.102;2022-10-16T10:38:04;21.90;99.90
15698;DHT22;7949;48.726;9.102;2022-10-16T10:40:43;22.10;99.90
15698;DHT22;7949;48.726;9.102;2022-10-16T10:43:24;22.30;99.90
15698;DHT22;7949;48.726;9.102;2022-10-16T10:45:56;22.40;99.90
15698;DHT22;7949;48.726;9.102;2022-10-16T10:48:44;22.70;99.90
15698;DHT22;7949;48.726;9.102;2022-10-16T10:51:19;23.00;99.90
15698;DHT22;7949;48.726;9.102;2022-10-16T10:53:55;23.40;99.90
15698;DHT22;7949;48.726;9.102;2022-10-16T10:56:40;23.80;99.90
15698;DHT22;7949;48.726;9.102;2022-10-16T11:02:00;24.20;99.90
15698;DHT22;7949;48.726;9.102;2022-10-16T11:04:49;24.30;99.90
15698;DHT22;7949;48.726;9.102;2022-10-16T11:07:19;24.70;99.90
15698;DHT22;7949;48.726;9.102;2022-10-16T11:09:52;25.00;99.90
15698;DHT22;7949;48.726;9.102;2022-10-16T11:12:22;25.20;99.90
15698;DHT22;7949;48.726;9.102;2022-10-16T11:14:56;24.80;99.90
15698;DHT22;7949;48.726;9.102;2022-10-16T11:17:28;24.40;99.90
15698;DHT22;7949;48.726;9.102;2022-10-16T11:20:00;24.00;99.90
15698;DHT22;7949;48.726;9.102;2022-10-16T11:22:33;23.70;99.90
15698;DHT22;7949;48.726;9.102;2022-10-16T11:25:13;23.60;99.90
15698;DHT22;7949;48.726;9.102;2022-10-16T11:27:44;23.50;99.90
15698;DHT22;7949;48.726;9.102;2022-10-16T11:30:16;23.50;99.90
15698;DHT22;7949;48.726;9.102;2022-10-16T11:32:54;23.60;99.90
15698;DHT22;7949;48.726;9.102;2022-10-16T11:35:25;23.90;99.90
15698;DHT22;7949;48.726;9.102;2022-10-16T11:37:57;24.40;99.90
15698;DHT22;7949;48.726;9.102;2022-10-16T11:40:29;24.70;99.90
15698;DHT22;7949;48.726;9.102;2022-10-16T11:43:04;24.70;99.90
15698;DHT22;7949;48.726;9.102;2022-10-16T11:45:36;25.10;99.90
15698;DHT22;7949;48.726;9.102;2022-10-16T11:48:15;25.20;99.90
15698;DHT22;7949;48.726;9.102;2022-10-16T11:50:50;25.60;99.90
15698;DHT22;7949;48.726;9.102;2022-10-16T11:53:41;26.00;99.90
15698;DHT22;7949;48.726;9.102;2022-10-16T11:56:13;26.40;99.90
15698;DHT22;7949;48.726;9.102;2022-10-16T11:58:50;26.70;99.90
15698;DHT22;7949;48.726;9.102;2022-10-16T12:01:22;26.80;99.90
15698;DHT22;7949;48.726;9.102;2022-10-16T12:04:02;27.00;99.90
15698;DHT22;7949;48.726;9.102;2022-10-16T12:06:34;26.70;99.90
15698;DHT22;7949;48.726;9.102;2022-10-16T12:09:03;26.00;99.90
15698;DHT22;7949;48.726;9.102;2022-10-16T12:11:37;26.40;99.90
15698;DHT22;7949;48.726;9.102;2022-10-16T12:14:21;26.70;99.90
15698;DHT22;7949;48.726;9.102;2022-10-16T12:16:53;27.20;99.90
15698;DHT22;7949;48.726;9.102;2022-10-16T12:19:22;27.80;99.90
15698;DHT22;7949;48.726;9.102;2022-10-16T12:21:50;27.60;99.90
15698;DHT22;7949;48.726;9.102;2022-10-16T12:24:32;27.30;99.90
15698;DHT22;7949;48.726;9.102;2022-10-16T12:27:01;26.90;99.90
15698;DHT22;7949;48.726;9.102;2022-10-16T12:29:35;26.90;99.90
15698;DHT22;7949;48.726;9.102;2022-10-16T12:32:04;27.10;99.90
15698;DHT22;7949;48.726;9.102;2022-10-16T12:34:38;25.80;99.90
15698;DHT22;7949;48.726;9.102;2022-10-16T12:37:12;25.30;99.90
15698;DHT22;7949;48.726;9.102;2022-10-16T12:39:39;25.30;99.90
15698;DHT22;7949;48.726;9.102;2022-10-16T12:42:22;25.60;99.90
15698;DHT22;7949;48.726;9.102;2022-10-16T12:44:49;26.00;99.90
15698;DHT22;7949;48.726;9.102;2022-10-16T12:47:35;26.40;99.90
15698;DHT22;7949;48.726;9.102;2022-10-16T12:50:21;25.70;99.90
15698;DHT22;7949;48.726;9.102;2022-10-16T12:52:49;24.20;99.90
15698;DHT22;7949;48.726;9.102;2022-10-16T12:55:18;23.30;99.90
15698;DHT22;7949;48.726;9.102;2022-10-16T12:58:02;23.10;99.90
15698;DHT22;7949;48.726;9.102;2022-10-16T13:00:39;23.00;99.90
15698;DHT22;7949;48.726;9.102;2022-10-16T13:03:44;22.70;99.90
15698;DHT22;7949;48.726;9.102;2022-10-16T13:06:22;22.60;99.90
15698;DHT22;7949;48.726;9.102;2022-10-16T13:09:08;22.60;99.90
15698;DHT22;7949;48.726;9.102;2022-10-16T13:11:52;22.60;99.90
15698;DHT22;7949;48.726;9.102;2022-10-16T13:17:32;22.60;99.90
15698;DHT22;7949;48.726;9.102;2022-10-16T13:20:09;22.60;99.90
15698;DHT22;7949;48.726;9.102;2022-10-16T13:22:45;22.60;99.90
15698;DHT22;7949;48.726;9.102;2022-10-16T13:25:22;22.70;99.90
15698;DHT22;7949;48.726;9.102;2022-10-16T13:27:55;22.70;99.90
15698;DHT22;7949;48.726;9.102;2022-10-16T13:30:25;22.80;99.90
15698;DHT22;7949;48.726;9.102;2022-10-16T13:32:59;22.80;99.90
15698;DHT22;7949;48.726;9.102;2022-10-16T13:35:28;22.90;99.90
15698;DHT22;7949;48.726;9.102;2022-10-16T13:38:13;23.00;99.90
15698;DHT22;7949;48.726;9.102;2022-10-16T13:40:52;23.20;99.90
15698;DHT22;7949;48.726;9.102;2022-10-16T13:43:22;23.10;99.90
15698;DHT22;7949;48.726;9.102;2022-10-16T13:45:57;23.00;99.90
15698;DHT22;7949;48.726;9.102;2022-10-16T13:48:25;23.00;99.90
15698;DHT22;7949;48.726;9.102;2022-10-16T13:51:03;22.70;99.90
15698;DHT22;7949;48.726;9.102;2022-10-16T13:53:31;22.80;99.90
15698;DHT22;7949;48.726;9.102;2022-10-16T13:55:59;22.90;99.90
15698;DHT22;7949;48.726;9.102;2022-10-16T13:58:26;23.00;99.90
15698;DHT22;7949;48.726;9.102;2022-10-16T14:00:55;22.80;99.90
15698;DHT22;7949;48.726;9.102;2022-10-16T14:03:23;22.70;99.90
15698;DHT22;7949;48.726;9.102;2022-10-16T14:05:53;22.50;99.90
15698;DHT22;7949;48.726;9.102;2022-10-16T14:08:22;22.40;99.90
15698;DHT22;7949;48.726;9.102;2022-10-16T14:10:52;22.30;99.90
15698;DHT22;7949;48.726;9.102;2022-10-16T14:13:26;22.30;99.90
15698;DHT22;7949;48.726;9.102;2022-10-16T14:15:54;22.30;99.90
15698;DHT22;7949;48.726;9.102;2022-10-16T14:18:25;22.30;99.90
15698;DHT22;7949;48.726;9.102;2022-10-16T14:20:54;22.30;99.90
15698;DHT22;7949;48.726;9.102;2022-10-16T14:23:30;22.30;99.90
15698;DHT22;7949;48.726;9.102;2022-10-16T14:26:11;22.30;99.90
15698;DHT22;7949;48.726;9.102;2022-10-16T14:28:40;22.40;99.90
15698;DHT22;7949;48.726;9.102;2022-10-16T14:31:24;22.50;99.90
15698;DHT22;7949;48.726;9.102;2022-10-16T14:33:51;22.60;99.90
15698;DHT22;7949;48.726;9.102;2022-10-16T14:36:20;22.70;99.90
15698;DHT22;7949;48.726;9.102;2022-10-16T14:39:00;22.80;99.90
15698;DHT22;7949;48.726;9.102;2022-10-16T14:41:29;23.00;99.90
15698;DHT22;7949;48.726;9.102;2022-10-16T14:43:58;23.10;99.90
15698;DHT22;7949;48.726;9.102;2022-10-16T14:46:32;23.60;99.90
15698;DHT22;7949;48.726;9.102;2022-10-16T14:49:03;23.90;99.90
15698;DHT22;7949;48.726;9.102;2022-10-16T14:51:32;23.80;99.90
15698;DHT22;7949;48.726;9.102;2022-10-16T14:53:59;23.70;99.90
15698;DHT22;7949;48.726;9.102;2022-10-16T14:56:29;23.80;99.90
15698;DHT22;7949;48.726;9.102;2022-10-16T14:58:57;24.30;99.90
15698;DHT22;7949;48.726;9.102;2022-10-16T15:01:23;24.80;99.90
15698;DHT22;7949;48.726;9.102;2022-10-16T15:03:51;25.20;99.90
15698;DHT22;7949;48.726;9.102;2022-10-16T15:06:20;24.90;99.90
15698;DHT22;7949;48.726;9.102;2022-10-16T15:08:48;24.50;99.90
15698;DHT22;7949;48.726;9.102;2022-10-16T15:11:17;23.80;99.90
15698;DHT22;7949;48.726;9.102;2022-10-16T15:13:44;23.20;99.90
15698;DHT22;7949;48.726;9.102;2022-10-16T15:16:12;22.90;99.90
15698;DHT22;7949;48.726;9.102;2022-10-16T15:18:39;22.70;99.90
15698;DHT22;7949;48.726;9.102;2022-10-16T15:21:06;22.50;99.90
15698;DHT22;7949;48.726;9.102;2022-10-16T15:23:33;22.30;99.90
15698;DHT22;7949;48.726;9.102;2022-10-16T15:26:01;22.00;99.90
15698;DHT22;7949;48.726;9.102;2022-10-16T15:28:28;21.90;99.90
15698;DHT22;7949;48.726;9.102;2022-10-16T15:30:56;21.70;99.90
15698;DHT22;7949;48.726;9.102;2022-10-16T15:33:24;21.50;99.90
15698;DHT22;7949;48.726;9.102;2022-10-16T15:35:53;21.50;99.90
15698;DHT22;7949;48.726;9.102;2022-10-16T15:38:21;21.30;99.90
15698;DHT22;7949;48.726;9.102;2022-10-16T15:40:49;21.30;99.90
15698;DHT22;7949;48.726;9.102;2022-10-16T15:43:17;21.10;99.90
15698;DHT22;7949;48.726;9.102;2022-10-16T15:45:44;21.00;99.90
15698;DHT22;7949;48.726;9.102;2022-10-16T15:48:12;20.90;99.90
15698;DHT22;7949;48.726;9.102;2022-10-16T15:50:39;20.90;99.90
15698;DHT22;7949;48.726;9.102;2022-10-16T15:53:06;20.80;99.90
15698;DHT22;7949;48.726;9.102;2022-10-16T15:55:34;20.90;99.90
15698;DHT22;7949;48.726;9.102;2022-10-16T15:58:03;20.70;99.90
15698;DHT22;7949;48.726;9.102;2022-10-16T16:00:31;20.60;99.90
15698;DHT22;7949;48.726;9.102;2022-10-16T16:03:04;20.50;99.90
15698;DHT22;7949;48.726;9.102;2022-10-16T16:05:31;20.40;99.90
15698;DHT22;7949;48.726;9.102;2022-10-16T16:07:59;20.30;99.90
15698;DHT22;7949;48.726;9.102;2022-10-16T16:10:26;20.10;99.90